RYR947 LOWW-EPKK
Flight info
| Callsign | RYR947 |
|---|---|
| Flight time | 0h 39m |
| Altitude | 29000 |
| Route | LEDVA DCT NETIR |
| Aircraft | B738/M-SADE3FGIJ1LRWY/SB1 |
Departure
| Time | 2026-04-20 20:27 |
|---|---|
| Airport | Vienna International Airport (LOWW) |
Arrival
| Time | 2026-04-20 21:07 |
|---|---|
| Airport | Kraków John Paul II International Airport (EPKK) |
| Time | Latitude | Longitude | Altitude | Speed | Heading |
|---|---|---|---|---|---|
| 2026-04-20 19:52 | 48.12124 | 16.55681 | 626 ft | 0 kts | 116° |
| 2026-04-20 20:17 | 48.12129 | 16.55665 | 627 ft | 3 kts | 115° |
| 2026-04-20 20:17 | 48.12137 | 16.55640 | 623 ft | 3 kts | 115° |
| 2026-04-20 20:17 | 48.12145 | 16.55615 | 615 ft | 3 kts | 115° |
| 2026-04-20 20:17 | 48.12153 | 16.55590 | 625 ft | 3 kts | 115° |
| 2026-04-20 20:18 | 48.12155 | 16.55585 | 625 ft | 0 kts | 115° |
| 2026-04-20 20:19 | 48.12154 | 16.55586 | 625 ft | 1 kts | 115° |
| 2026-04-20 20:20 | 48.12144 | 16.55596 | 617 ft | 2 kts | 169° |
| 2026-04-20 20:20 | 48.12121 | 16.55585 | 613 ft | 5 kts | 201° |
| 2026-04-20 20:20 | 48.12077 | 16.55555 | 611 ft | 9 kts | 205° |
| 2026-04-20 20:20 | 48.12010 | 16.55506 | 615 ft | 13 kts | 206° |
| 2026-04-20 20:21 | 48.11931 | 16.55448 | 619 ft | 11 kts | 202° |
| 2026-04-20 20:21 | 48.11857 | 16.55429 | 609 ft | 11 kts | 194° |
| 2026-04-20 20:21 | 48.11797 | 16.55466 | 609 ft | 10 kts | 118° |
| 2026-04-20 20:21 | 48.11767 | 16.55562 | 617 ft | 10 kts | 116° |
| 2026-04-20 20:22 | 48.11734 | 16.55661 | 617 ft | 12 kts | 116° |
| 2026-04-20 20:22 | 48.11696 | 16.55780 | 612 ft | 14 kts | 116° |
| 2026-04-20 20:22 | 48.11650 | 16.55921 | 614 ft | 16 kts | 116° |
| 2026-04-20 20:22 | 48.11597 | 16.56082 | 620 ft | 18 kts | 116° |
| 2026-04-20 20:23 | 48.11539 | 16.56261 | 618 ft | 20 kts | 116° |
| 2026-04-20 20:23 | 48.11479 | 16.56445 | 614 ft | 19 kts | 116° |
| 2026-04-20 20:23 | 48.11421 | 16.56625 | 613 ft | 19 kts | 116° |
| 2026-04-20 20:23 | 48.11364 | 16.56798 | 619 ft | 18 kts | 116° |
| 2026-04-20 20:24 | 48.11310 | 16.56965 | 617 ft | 18 kts | 116° |
| 2026-04-20 20:24 | 48.11258 | 16.57127 | 618 ft | 17 kts | 116° |
| 2026-04-20 20:24 | 48.11207 | 16.57283 | 612 ft | 16 kts | 116° |
| 2026-04-20 20:24 | 48.11158 | 16.57433 | 609 ft | 16 kts | 116° |
| 2026-04-20 20:25 | 48.11112 | 16.57577 | 617 ft | 15 kts | 115° |
| 2026-04-20 20:25 | 48.11061 | 16.57653 | 609 ft | 10 kts | 178° |
| 2026-04-20 20:25 | 48.10996 | 16.57614 | 609 ft | 10 kts | 207° |
| 2026-04-20 20:25 | 48.10936 | 16.57568 | 609 ft | 10 kts | 206° |
| 2026-04-20 20:26 | 48.10931 | 16.57483 | 612 ft | 10 kts | 300° |
| 2026-04-20 20:26 | 48.10961 | 16.57395 | 618 ft | 10 kts | 296° |
| 2026-04-20 20:26 | 48.11015 | 16.57231 | 615 ft | 41 kts | 296° |
| 2026-04-20 20:26 | 48.11251 | 16.56508 | 614 ft | 111 kts | 296° |
| 2026-04-20 20:27 | 48.11680 | 16.55190 | 623 ft | 168 kts | 296° |
| 2026-04-20 20:27 | 48.12211 | 16.53513 | 1165 ft | 175 kts | 297° |
| 2026-04-20 20:27 | 48.12489 | 16.51846 | 2265 ft | 167 kts | 265° |
| 2026-04-20 20:27 | 48.11900 | 16.50293 | 2718 ft | 195 kts | 218° |
| 2026-04-20 20:28 | 48.10616 | 16.49284 | 3025 ft | 220 kts | 208° |
| 2026-04-20 20:28 | 48.09208 | 16.48252 | 3545 ft | 229 kts | 208° |
| 2026-04-20 20:28 | 48.07802 | 16.47086 | 4217 ft | 231 kts | 225° |
| 2026-04-20 20:28 | 48.06910 | 16.45054 | 4612 ft | 246 kts | 251° |
| 2026-04-20 20:29 | 48.06246 | 16.42591 | 5077 ft | 262 kts | 250° |
| 2026-04-20 20:29 | 48.05519 | 16.40066 | 5921 ft | 266 kts | 249° |
| 2026-04-20 20:29 | 48.04769 | 16.37535 | 6878 ft | 267 kts | 249° |
| 2026-04-20 20:29 | 48.04011 | 16.35007 | 7852 ft | 265 kts | 249° |
| 2026-04-20 20:30 | 48.03517 | 16.32392 | 8782 ft | 261 kts | 273° |
| 2026-04-20 20:30 | 48.04031 | 16.29843 | 9729 ft | 259 kts | 302° |
| 2026-04-20 20:30 | 48.05252 | 16.27850 | 10498 ft | 268 kts | 321° |
| 2026-04-20 20:30 | 48.07021 | 16.26585 | 10717 ft | 300 kts | 343° |
| 2026-04-20 20:31 | 48.09192 | 16.26435 | 11143 ft | 325 kts | 5° |
| 2026-04-20 20:31 | 48.11374 | 16.27501 | 11856 ft | 339 kts | 24° |
| 2026-04-20 20:31 | 48.13293 | 16.29628 | 12661 ft | 348 kts | 38° |
| 2026-04-20 20:31 | 48.15031 | 16.32208 | 13458 ft | 355 kts | 42° |
| 2026-04-20 20:32 | 48.16728 | 16.34928 | 14199 ft | 360 kts | 43° |
| 2026-04-20 20:32 | 48.18441 | 16.37685 | 14909 ft | 363 kts | 43° |
| 2026-04-20 20:32 | 48.20185 | 16.40442 | 15635 ft | 366 kts | 42° |
| 2026-04-20 20:32 | 48.21964 | 16.43196 | 16343 ft | 369 kts | 41° |
| 2026-04-20 20:33 | 48.23738 | 16.46015 | 17038 ft | 374 kts | 44° |
| 2026-04-20 20:33 | 48.25473 | 16.48965 | 17735 ft | 378 kts | 45° |
| 2026-04-20 20:33 | 48.27235 | 16.51925 | 18383 ft | 383 kts | 44° |
| 2026-04-20 20:33 | 48.29055 | 16.54877 | 18928 ft | 387 kts | 43° |
| 2026-04-20 20:34 | 48.30926 | 16.57813 | 19497 ft | 391 kts | 42° |
| 2026-04-20 20:34 | 48.32842 | 16.60743 | 20108 ft | 394 kts | 41° |
| 2026-04-20 20:34 | 48.34778 | 16.63658 | 20784 ft | 395 kts | 41° |
| 2026-04-20 20:34 | 48.36738 | 16.66581 | 21335 ft | 399 kts | 40° |
| 2026-04-20 20:35 | 48.38727 | 16.69533 | 21836 ft | 404 kts | 40° |
| 2026-04-20 20:35 | 48.40745 | 16.72522 | 22374 ft | 408 kts | 40° |
| 2026-04-20 20:35 | 48.42777 | 16.75534 | 22917 ft | 412 kts | 40° |
| 2026-04-20 20:35 | 48.44828 | 16.78577 | 23427 ft | 416 kts | 40° |
| 2026-04-20 20:36 | 48.46896 | 16.81649 | 23876 ft | 420 kts | 39° |
| 2026-04-20 20:36 | 48.48984 | 16.84755 | 24324 ft | 423 kts | 39° |
| 2026-04-20 20:36 | 48.51071 | 16.87868 | 24988 ft | 418 kts | 40° |
| 2026-04-20 20:36 | 48.53108 | 16.90916 | 25869 ft | 410 kts | 40° |
| 2026-04-20 20:37 | 48.55138 | 16.93954 | 26323 ft | 413 kts | 40° |
| 2026-04-20 20:37 | 48.57193 | 16.97025 | 26665 ft | 418 kts | 40° |
| 2026-04-20 20:37 | 48.59263 | 17.00121 | 27169 ft | 419 kts | 40° |
| 2026-04-20 20:37 | 48.61323 | 17.03211 | 27779 ft | 417 kts | 40° |
| 2026-04-20 20:38 | 48.63376 | 17.06294 | 28339 ft | 416 kts | 40° |
| 2026-04-20 20:38 | 48.65434 | 17.09388 | 28828 ft | 417 kts | 40° |
| 2026-04-20 20:38 | 48.67467 | 17.12446 | 29065 ft | 421 kts | 40° |
| 2026-04-20 20:38 | 48.69553 | 17.15586 | 29058 ft | 421 kts | 40° |
| 2026-04-20 20:39 | 48.73660 | 17.21792 | 29039 ft | 414 kts | 40° |
| 2026-04-20 20:39 | 48.77749 | 17.27979 | 29045 ft | 417 kts | 40° |
| 2026-04-20 20:40 | 48.81865 | 17.34220 | 29045 ft | 419 kts | 40° |
| 2026-04-20 20:40 | 48.83914 | 17.37335 | 28853 ft | 416 kts | 41° |
| 2026-04-20 20:40 | 48.85943 | 17.40426 | 28551 ft | 409 kts | 41° |
| 2026-04-20 20:41 | 48.87935 | 17.43465 | 28296 ft | 402 kts | 41° |
| 2026-04-20 20:41 | 48.89893 | 17.46454 | 28010 ft | 396 kts | 41° |
| 2026-04-20 20:41 | 48.91820 | 17.49399 | 27729 ft | 390 kts | 41° |
| 2026-04-20 20:41 | 48.93721 | 17.52306 | 27450 ft | 384 kts | 41° |
| 2026-04-20 20:42 | 48.95587 | 17.55162 | 27200 ft | 379 kts | 42° |
| 2026-04-20 20:42 | 48.97416 | 17.58029 | 26920 ft | 375 kts | 43° |
| 2026-04-20 20:42 | 48.99185 | 17.60905 | 26653 ft | 370 kts | 44° |
| 2026-04-20 20:42 | 49.00922 | 17.63766 | 26380 ft | 366 kts | 44° |
| 2026-04-20 20:43 | 49.02642 | 17.66612 | 26128 ft | 365 kts | 44° |
| 2026-04-20 20:43 | 49.04364 | 17.69462 | 25879 ft | 366 kts | 44° |
| 2026-04-20 20:43 | 49.06081 | 17.72304 | 25622 ft | 361 kts | 45° |
| 2026-04-20 20:43 | 49.07777 | 17.75114 | 25275 ft | 359 kts | 45° |
| 2026-04-20 20:44 | 49.09463 | 17.77906 | 24950 ft | 357 kts | 45° |
| 2026-04-20 20:44 | 49.11114 | 17.80642 | 24613 ft | 355 kts | 45° |
| 2026-04-20 20:44 | 49.12782 | 17.83409 | 24279 ft | 353 kts | 45° |
| 2026-04-20 20:44 | 49.14439 | 17.86159 | 23940 ft | 351 kts | 45° |
| 2026-04-20 20:45 | 49.16088 | 17.88897 | 23597 ft | 350 kts | 46° |
| 2026-04-20 20:45 | 49.17729 | 17.91626 | 23175 ft | 348 kts | 46° |
| 2026-04-20 20:45 | 49.19360 | 17.94341 | 22817 ft | 345 kts | 46° |
| 2026-04-20 20:45 | 49.20978 | 17.97039 | 22491 ft | 342 kts | 46° |
| 2026-04-20 20:46 | 49.22580 | 17.99712 | 22141 ft | 340 kts | 46° |
| 2026-04-20 20:46 | 49.24170 | 18.02366 | 21809 ft | 337 kts | 46° |
| 2026-04-20 20:46 | 49.25741 | 18.04993 | 21482 ft | 334 kts | 46° |
| 2026-04-20 20:46 | 49.27303 | 18.07606 | 21145 ft | 331 kts | 46° |
| 2026-04-20 20:47 | 49.28851 | 18.10199 | 20829 ft | 329 kts | 46° |
| 2026-04-20 20:47 | 49.30388 | 18.12776 | 20509 ft | 327 kts | 46° |
| 2026-04-20 20:47 | 49.31915 | 18.15337 | 20191 ft | 325 kts | 46° |
| 2026-04-20 20:47 | 49.33435 | 18.17889 | 19873 ft | 323 kts | 46° |
| 2026-04-20 20:48 | 49.34944 | 18.20425 | 19552 ft | 321 kts | 46° |
| 2026-04-20 20:48 | 49.36442 | 18.22948 | 19240 ft | 319 kts | 46° |
| 2026-04-20 20:48 | 49.37934 | 18.25460 | 18928 ft | 318 kts | 46° |
| 2026-04-20 20:48 | 49.39418 | 18.27964 | 18615 ft | 317 kts | 46° |
| 2026-04-20 20:49 | 49.40896 | 18.30459 | 18302 ft | 315 kts | 46° |
| 2026-04-20 20:49 | 49.42350 | 18.32915 | 17960 ft | 314 kts | 46° |
| 2026-04-20 20:49 | 49.43814 | 18.35392 | 17613 ft | 312 kts | 46° |
| 2026-04-20 20:49 | 49.45272 | 18.37860 | 17307 ft | 310 kts | 46° |
| 2026-04-20 20:50 | 49.46714 | 18.40304 | 16996 ft | 308 kts | 46° |
| 2026-04-20 20:50 | 49.48151 | 18.42741 | 16686 ft | 306 kts | 46° |
| 2026-04-20 20:50 | 49.49574 | 18.45158 | 16381 ft | 304 kts | 47° |
| 2026-04-20 20:50 | 49.50988 | 18.47561 | 16078 ft | 302 kts | 47° |
| 2026-04-20 20:51 | 49.52392 | 18.49950 | 15782 ft | 300 kts | 47° |
| 2026-04-20 20:51 | 49.53791 | 18.52330 | 15485 ft | 298 kts | 47° |
| 2026-04-20 20:51 | 49.55178 | 18.54695 | 15181 ft | 297 kts | 47° |
| 2026-04-20 20:51 | 49.56558 | 18.57048 | 14897 ft | 295 kts | 47° |
| 2026-04-20 20:52 | 49.57930 | 18.59391 | 14591 ft | 294 kts | 47° |
| 2026-04-20 20:52 | 49.59278 | 18.61764 | 14213 ft | 296 kts | 49° |
| 2026-04-20 20:52 | 49.60581 | 18.64236 | 13884 ft | 297 kts | 50° |
| 2026-04-20 20:52 | 49.61866 | 18.66730 | 13526 ft | 296 kts | 50° |
| 2026-04-20 20:53 | 49.63141 | 18.69212 | 13198 ft | 295 kts | 50° |
| 2026-04-20 20:53 | 49.64416 | 18.71686 | 12889 ft | 293 kts | 50° |
| 2026-04-20 20:53 | 49.65682 | 18.74138 | 12583 ft | 291 kts | 50° |
| 2026-04-20 20:53 | 49.66940 | 18.76570 | 12284 ft | 289 kts | 50° |
| 2026-04-20 20:54 | 49.68189 | 18.78985 | 11995 ft | 287 kts | 50° |
| 2026-04-20 20:54 | 49.69434 | 18.81388 | 11708 ft | 285 kts | 50° |
| 2026-04-20 20:54 | 49.70668 | 18.83771 | 11410 ft | 284 kts | 50° |
| 2026-04-20 20:54 | 49.71897 | 18.86145 | 11117 ft | 282 kts | 50° |
| 2026-04-20 20:55 | 49.73121 | 18.88510 | 10829 ft | 280 kts | 50° |
| 2026-04-20 20:55 | 49.74335 | 18.90857 | 10543 ft | 279 kts | 50° |
| 2026-04-20 20:55 | 49.75542 | 18.93195 | 10253 ft | 278 kts | 50° |
| 2026-04-20 20:55 | 49.76743 | 18.95522 | 9972 ft | 277 kts | 50° |
| 2026-04-20 20:56 | 49.77941 | 18.97843 | 9662 ft | 275 kts | 49° |
| 2026-04-20 20:56 | 49.79131 | 19.00152 | 9369 ft | 274 kts | 49° |
| 2026-04-20 20:56 | 49.80319 | 19.02459 | 9038 ft | 273 kts | 50° |
| 2026-04-20 20:56 | 49.81485 | 19.04725 | 8740 ft | 272 kts | 50° |
| 2026-04-20 20:57 | 49.82674 | 19.07039 | 8448 ft | 270 kts | 50° |
| 2026-04-20 20:57 | 49.83826 | 19.09280 | 8172 ft | 269 kts | 50° |
| 2026-04-20 20:57 | 49.84985 | 19.11539 | 7897 ft | 267 kts | 50° |
| 2026-04-20 20:57 | 49.86136 | 19.13785 | 7616 ft | 265 kts | 50° |
| 2026-04-20 20:58 | 49.87280 | 19.16018 | 7339 ft | 264 kts | 50° |
| 2026-04-20 20:58 | 49.88416 | 19.18237 | 7073 ft | 262 kts | 50° |
| 2026-04-20 20:58 | 49.89548 | 19.20449 | 6803 ft | 261 kts | 50° |
| 2026-04-20 20:58 | 49.90668 | 19.22642 | 6538 ft | 259 kts | 50° |
| 2026-04-20 20:59 | 49.91785 | 19.24829 | 6266 ft | 258 kts | 50° |
| 2026-04-20 20:59 | 49.92893 | 19.27001 | 5986 ft | 256 kts | 50° |
| 2026-04-20 20:59 | 49.93994 | 19.29161 | 5714 ft | 254 kts | 50° |
| 2026-04-20 20:59 | 49.95088 | 19.31309 | 5447 ft | 252 kts | 50° |
| 2026-04-20 21:00 | 49.96170 | 19.33435 | 5187 ft | 250 kts | 50° |
| 2026-04-20 21:00 | 49.96882 | 19.34836 | 5074 ft | 246 kts | 50° |
| 2026-04-20 21:00 | 49.97924 | 19.36888 | 4974 ft | 238 kts | 50° |
| 2026-04-20 21:00 | 49.98935 | 19.38878 | 4872 ft | 231 kts | 50° |
| 2026-04-20 21:01 | 49.99916 | 19.40809 | 4770 ft | 223 kts | 50° |
| 2026-04-20 21:01 | 50.00860 | 19.42672 | 4672 ft | 216 kts | 50° |
| 2026-04-20 21:01 | 50.01771 | 19.44469 | 4583 ft | 207 kts | 51° |
| 2026-04-20 21:01 | 50.02647 | 19.46199 | 4391 ft | 200 kts | 51° |
| 2026-04-20 21:02 | 50.03449 | 19.47921 | 4155 ft | 194 kts | 64° |
| 2026-04-20 21:02 | 50.03759 | 19.49904 | 4026 ft | 184 kts | 77° |
| 2026-04-20 21:02 | 50.04022 | 19.51820 | 3802 ft | 178 kts | 76° |
| 2026-04-20 21:02 | 50.04285 | 19.53663 | 3604 ft | 171 kts | 77° |
| 2026-04-20 21:03 | 50.04539 | 19.55442 | 3414 ft | 166 kts | 78° |
| 2026-04-20 21:03 | 50.04785 | 19.57176 | 3237 ft | 163 kts | 78° |
| 2026-04-20 21:03 | 50.05027 | 19.58890 | 3050 ft | 163 kts | 78° |
| 2026-04-20 21:03 | 50.05271 | 19.60617 | 2852 ft | 164 kts | 78° |
| 2026-04-20 21:04 | 50.05515 | 19.62346 | 2626 ft | 163 kts | 78° |
| 2026-04-20 21:04 | 50.05756 | 19.64065 | 2425 ft | 163 kts | 78° |
| 2026-04-20 21:04 | 50.05996 | 19.65769 | 2194 ft | 162 kts | 78° |
| 2026-04-20 21:04 | 50.06234 | 19.67463 | 1961 ft | 155 kts | 78° |
| 2026-04-20 21:05 | 50.06457 | 19.69053 | 1837 ft | 143 kts | 77° |
| 2026-04-20 21:05 | 50.06665 | 19.70543 | 1582 ft | 138 kts | 77° |
| 2026-04-20 21:05 | 50.06872 | 19.71995 | 1421 ft | 139 kts | 77° |
| 2026-04-20 21:05 | 50.07079 | 19.73500 | 1273 ft | 143 kts | 76° |
| 2026-04-20 21:06 | 50.07292 | 19.75025 | 1086 ft | 145 kts | 76° |
| 2026-04-20 21:06 | 50.07508 | 19.76565 | 894 ft | 145 kts | 75° |
| 2026-04-20 21:06 | 50.07715 | 19.78051 | 797 ft | 125 kts | 78° |
| 2026-04-20 21:06 | 50.07854 | 19.79053 | 800 ft | 64 kts | 78° |
| 2026-04-20 21:07 | 50.07924 | 19.79554 | 800 ft | 43 kts | 77° |
| 2026-04-20 21:07 | 50.07979 | 19.79957 | 799 ft | 31 kts | 78° |
| 2026-04-20 21:07 | 50.08010 | 19.80186 | 799 ft | 12 kts | 79° |
| 2026-04-20 21:07 | 50.07993 | 19.80280 | 798 ft | 10 kts | 148° |
| 2026-04-20 21:08 | 50.07926 | 19.80309 | 799 ft | 10 kts | 167° |
| 2026-04-20 21:08 | 50.07851 | 19.80334 | 799 ft | 12 kts | 168° |
| 2026-04-20 21:08 | 50.07765 | 19.80363 | 799 ft | 13 kts | 168° |
| 2026-04-20 21:08 | 50.07669 | 19.80396 | 799 ft | 15 kts | 167° |
| 2026-04-20 21:09 | 50.07590 | 19.80419 | 799 ft | 10 kts | 181° |
| 2026-04-20 21:09 | 50.07560 | 19.80345 | 799 ft | 9 kts | 259° |
| 2026-04-20 21:09 | 50.07548 | 19.80251 | 799 ft | 9 kts | 258° |
| 2026-04-20 21:09 | 50.07535 | 19.80156 | 799 ft | 7 kts | 258° |
| 2026-04-20 21:10 | 50.07510 | 19.80130 | 799 ft | 5 kts | 173° |
| 2026-04-20 21:10 | 50.07482 | 19.80140 | 799 ft | 0 kts | 167° |